Time;durP1;ratioP1;P1;durP2;ratioP2;P2;SDS_P1;SDS_P2;PMS_P1;PMS_P2;Temp;Humidity;BMP_temperature;BMP_pressure;BME280_temperature;BME280_humidity;BME280_pressure;Samples;Min_cycle;Max_cycle;Signal;HPM_P1;HPM_P2
2022/10/14 00:00:23;;;;;;;;;;;13.50;90.00;;;;;;2051655;28;19978;-87
2022/10/14 00:01:25;;;;;;;;;;;13.50;89.90;;;;;;2059486;28;19910;-89
2022/10/14 00:02:26;;;;;;;;;;;13.50;90.00;;;;;;2056659;28;20031;-86
2022/10/14 00:03:27;;;;;;;;;;;13.50;90.00;;;;;;2054725;28;19965;-88
2022/10/14 00:04:28;;;;;;;;;;;13.50;90.00;;;;;;2051575;28;20349;-86
2022/10/14 00:05:29;;;;;;;;;;;13.50;90.00;;;;;;2050611;28;19973;-84
2022/10/14 00:06:30;;;;;;;;;;;13.50;90.00;;;;;;2051716;29;19914;-89
2022/10/14 00:07:31;;;;;;;;;;;13.50;89.90;;;;;;2051337;28;19917;-85
2022/10/14 00:08:31;;;;;;;;;;;13.40;89.90;;;;;;2051609;29;19906;-84
2022/10/14 00:09:32;;;;;;;;;;;13.50;90.00;;;;;;2051472;29;19922;-85
2022/10/14 00:10:35;;;;;;;;;;;13.50;90.00;;;;;;2059531;28;19992;-86
2022/10/14 00:11:36;;;;;;;;;;;13.50;90.10;;;;;;2050914;28;19921;-85
2022/10/14 00:12:36;;;;;;;;;;;13.50;90.00;;;;;;2048216;28;19990;-86
2022/10/14 00:13:37;;;;;;;;;;;13.40;90.00;;;;;;2050794;29;20292;-86
2022/10/14 00:14:38;;;;;;;;;;;13.50;90.10;;;;;;2051633;28;19917;-85
2022/10/14 00:15:39;;;;;;;;;;;13.50;90.10;;;;;;2051403;29;19945;-86
2022/10/14 00:16:41;;;;;;;;;;;13.50;90.10;;;;;;2055068;28;19906;-87
2022/10/14 00:17:43;;;;;;;;;;;13.50;90.10;;;;;;2064461;28;19953;-88
2022/10/14 00:18:44;;;;;;;;;;;13.50;90.00;;;;;;2058410;28;20316;-87
2022/10/14 00:19:45;;;;;;;;;;;13.50;90.10;;;;;;2051434;28;20321;-87
2022/10/14 00:20:52;;;;;;;;;;;13.50;90.10;;;;;;2046443;28;20012;-85
2022/10/14 00:21:53;;;;;;;;;;;13.50;90.10;;;;;;2052436;28;19980;-84
2022/10/14 00:22:53;;;;;;;;;;;13.50;90.10;;;;;;2041020;29;20341;-88
2022/10/14 00:23:55;;;;;;;;;;;13.50;90.10;;;;;;2051551;28;19961;-87
2022/10/14 00:24:57;;;;;;;;;;;13.50;90.10;;;;;;2058718;28;19921;-85
2022/10/14 00:25:58;;;;;;;;;;;13.40;90.00;;;;;;2053781;28;19982;-84
2022/10/14 00:27:03;;;;;;;;;;;13.50;90.10;;;;;;2059211;28;20312;-84
2022/10/14 00:28:05;;;;;;;;;;;13.40;90.00;;;;;;2056923;28;19910;-85
2022/10/14 00:29:07;;;;;;;;;;;13.40;90.00;;;;;;2051309;29;19911;-88
2022/10/14 00:30:08;;;;;;;;;;;13.50;90.00;;;;;;2045260;28;19921;-86
2022/10/14 00:31:09;;;;;;;;;;;13.40;90.00;;;;;;2047160;29;19981;-83
2022/10/14 00:32:09;;;;;;;;;;;13.40;89.90;;;;;;2042684;29;19977;-86
2022/10/14 00:33:10;;;;;;;;;;;13.40;89.90;;;;;;2059093;28;20005;-86
2022/10/14 00:34:12;;;;;;;;;;;13.40;89.80;;;;;;2044790;28;20001;-83
2022/10/14 00:35:12;;;;;;;;;;;13.40;89.70;;;;;;2059330;28;20248;-88
2022/10/14 00:36:14;;;;;;;;;;;13.40;89.80;;;;;;2053500;28;19910;-87
2022/10/14 00:37:14;;;;;;;;;;;13.40;89.80;;;;;;2047984;28;19946;-86
2022/10/14 00:38:15;;;;;;;;;;;13.40;89.80;;;;;;2047268;28;19915;-87
2022/10/14 00:39:16;;;;;;;;;;;13.40;90.00;;;;;;2059233;28;19909;-86
2022/10/14 00:40:16;;;;;;;;;;;13.40;90.00;;;;;;2054760;28;20368;-87
2022/10/14 00:41:27;;;;;;;;;;;13.40;90.00;;;;;;2059364;28;20287;-84
2022/10/14 00:42:31;;;;;;;;;;;13.40;90.00;;;;;;2045736;29;20298;-87
2022/10/14 00:43:50;;;;;;;;;;;13.40;90.00;;;;;;2033823;29;19950;-88
2022/10/14 00:44:57;;;;;;;;;;;13.40;90.00;;;;;;2045592;28;19907;-85
2022/10/14 00:45:58;;;;;;;;;;;13.40;90.00;;;;;;2051227;28;19910;-87
2022/10/14 00:46:58;;;;;;;;;;;13.40;89.90;;;;;;2034979;29;19950;-86
2022/10/14 00:47:59;;;;;;;;;;;13.40;90.00;;;;;;2051086;29;20288;-86
2022/10/14 00:49:02;;;;;;;;;;;13.40;90.00;;;;;;2036919;29;19922;-86
2022/10/14 00:50:03;;;;;;;;;;;13.40;90.00;;;;;;2043486;29;20289;-89
2022/10/14 00:51:04;;;;;;;;;;;13.40;90.10;;;;;;2050952;28;19906;-88
2022/10/14 00:52:09;;;;;;;;;;;13.40;90.10;;;;;;2050308;29;19911;-87
2022/10/14 00:53:12;;;;;;;;;;;13.40;90.10;;;;;;2044833;28;19919;-89
2022/10/14 00:54:15;;;;;;;;;;;13.40;90.10;;;;;;2059168;28;19936;-86
2022/10/14 00:55:17;;;;;;;;;;;13.40;90.10;;;;;;2051152;29;20009;-86
2022/10/14 00:56:20;;;;;;;;;;;13.40;90.10;;;;;;2043601;28;20310;-87
2022/10/14 00:57:22;;;;;;;;;;;13.40;90.10;;;;;;2056431;28;19949;-86
2022/10/14 00:58:22;;;;;;;;;;;13.40;90.10;;;;;;2046184;28;20356;-87
2022/10/14 00:59:23;;;;;;;;;;;13.40;90.10;;;;;;2043152;29;19910;-87
2022/10/14 01:00:24;;;;;;;;;;;13.40;90.10;;;;;;2048057;29;19910;-86
2022/10/14 01:01:24;;;;;;;;;;;13.40;90.10;;;;;;2047650;29;19914;-87
2022/10/14 01:02:26;;;;;;;;;;;13.40;90.10;;;;;;2050943;28;20356;-88
2022/10/14 01:03:26;;;;;;;;;;;13.40;90.10;;;;;;2051071;28;19910;-84
2022/10/14 01:04:27;;;;;;;;;;;13.40;90.00;;;;;;2050911;29;19953;-86
2022/10/14 01:05:30;;;;;;;;;;;13.30;90.00;;;;;;2050362;28;19933;-87
2022/10/14 01:06:40;;;;;;;;;;;13.40;90.00;;;;;;2059108;28;19910;-85
2022/10/14 01:07:44;;;;;;;;;;;13.40;90.00;;;;;;2053856;28;20341;-88
2022/10/14 01:08:44;;;;;;;;;;;13.40;90.10;;;;;;2051387;28;20234;-87
2022/10/14 01:09:45;;;;;;;;;;;13.40;90.10;;;;;;2051210;28;19925;-85
2022/10/14 01:11:01;;;;;;;;;;;13.40;90.00;;;;;;2054980;28;19910;-86
2022/10/14 01:12:08;;;;;;;;;;;13.30;90.10;;;;;;2056703;28;19933;-88
2022/10/14 01:13:13;;;;;;;;;;;13.40;90.10;;;;;;2043865;29;19982;-84
2022/10/14 01:14:20;;;;;;;;;;;13.30;90.10;;;;;;2037701;29;19915;-87
2022/10/14 01:15:39;;;;;;;;;;;13.40;90.10;;;;;;2037126;29;19919;-89
2022/10/14 01:17:02;;;;;;;;;;;13.40;90.10;;;;;;2047646;28;20022;-88
2022/10/14 01:18:14;;;;;;;;;;;13.40;90.10;;;;;;2053958;28;19906;-85
2022/10/14 01:19:29;;;;;;;;;;;13.30;90.00;;;;;;2046760;29;19910;-86
2022/10/14 01:20:38;;;;;;;;;;;13.30;90.00;;;;;;2052842;28;20349;-87
2022/10/14 01:21:41;;;;;;;;;;;13.30;90.00;;;;;;2044024;29;19914;-85
2022/10/14 01:22:57;;;;;;;;;;;13.30;90.10;;;;;;2051842;28;19910;-83
2022/10/14 01:24:12;;;;;;;;;;;13.30;90.10;;;;;;2061149;28;19906;-85
2022/10/14 01:25:12;;;;;;;;;;;13.30;90.00;;;;;;2066490;28;19922;-85
2022/10/14 01:26:25;;;;;;;;;;;13.40;90.10;;;;;;2066946;28;19906;-86
2022/10/14 01:27:44;;;;;;;;;;;13.30;90.10;;;;;;2057943;28;19972;-88
2022/10/14 01:28:45;;;;;;;;;;;13.30;90.10;;;;;;2048753;29;19918;-87
2022/10/14 01:29:51;;;;;;;;;;;13.30;90.10;;;;;;2057107;28;19910;-88
2022/10/14 01:31:03;;;;;;;;;;;13.30;90.20;;;;;;2051640;28;20313;-87
2022/10/14 01:32:22;;;;;;;;;;;13.30;90.10;;;;;;2058268;28;19937;-87
2022/10/14 01:33:24;;;;;;;;;;;13.30;90.10;;;;;;2052842;28;20257;-84
2022/10/14 01:34:29;;;;;;;;;;;13.30;90.20;;;;;;2050476;28;19915;-85
2022/10/14 01:35:39;;;;;;;;;;;13.30;90.20;;;;;;2042919;29;20013;-89
2022/10/14 01:36:43;;;;;;;;;;;13.30;90.10;;;;;;2055982;28;19917;-87
2022/10/14 01:37:49;;;;;;;;;;;13.30;90.10;;;;;;2058169;28;19917;-86
2022/10/14 01:38:54;;;;;;;;;;;13.30;90.10;;;;;;2042607;29;19910;-85
2022/10/14 01:39:58;;;;;;;;;;;13.30;90.10;;;;;;2043926;28;19907;-87
2022/10/14 01:41:18;;;;;;;;;;;13.30;90.10;;;;;;2051505;28;19993;-86
2022/10/14 01:42:21;;;;;;;;;;;13.30;90.10;;;;;;2055727;28;19915;-89
2022/10/14 01:43:26;;;;;;;;;;;13.30;90.10;;;;;;2051925;28;19910;-84
2022/10/14 01:44:28;;;;;;;;;;;13.30;90.10;;;;;;2059104;28;19917;-85
2022/10/14 01:45:31;;;;;;;;;;;13.30;90.10;;;;;;2052373;28;19910;-87
2022/10/14 01:46:33;;;;;;;;;;;13.30;90.20;;;;;;2043426;28;19911;-86
2022/10/14 01:47:35;;;;;;;;;;;13.30;90.30;;;;;;2050960;28;19977;-87
2022/10/14 01:48:37;;;;;;;;;;;13.30;90.20;;;;;;2050549;28;19914;-87
2022/10/14 01:49:40;;;;;;;;;;;13.30;90.20;;;;;;2059061;28;19997;-86
2022/10/14 01:50:42;;;;;;;;;;;13.30;90.20;;;;;;2057888;28;19906;-87
2022/10/14 01:51:45;;;;;;;;;;;13.30;90.30;;;;;;2050085;28;19910;-88
2022/10/14 01:52:53;;;;;;;;;;;13.30;90.60;;;;;;2045921;28;19946;-87
2022/10/14 01:53:59;;;;;;;;;;;13.30;90.30;;;;;;2046737;29;19914;-85
2022/10/14 01:55:01;;;;;;;;;;;13.30;90.40;;;;;;2036005;28;19911;-85
2022/10/14 01:56:03;;;;;;;;;;;13.30;90.30;;;;;;2043292;29;19906;-86
2022/10/14 01:57:06;;;;;;;;;;;13.30;90.40;;;;;;2039788;28;20456;-88
2022/10/14 01:58:09;;;;;;;;;;;13.30;90.30;;;;;;2042062;29;19946;-84
2022/10/14 01:59:11;;;;;;;;;;;13.30;90.40;;;;;;2042414;29;20068;-84
2022/10/14 02:00:12;;;;;;;;;;;13.30;90.30;;;;;;2051828;28;19962;-85
2022/10/14 02:01:16;;;;;;;;;;;13.30;90.40;;;;;;2058686;28;19925;-87
2022/10/14 02:02:18;;;;;;;;;;;13.30;90.40;;;;;;2050738;28;19992;-86
2022/10/14 02:03:19;;;;;;;;;;;13.30;90.40;;;;;;2058348;28;20343;-86
2022/10/14 02:04:21;;;;;;;;;;;13.30;90.30;;;;;;2066250;28;19956;-86
2022/10/14 02:05:26;;;;;;;;;;;13.30;90.30;;;;;;2063563;28;19946;-86
2022/10/14 02:06:32;;;;;;;;;;;13.30;90.30;;;;;;2035338;29;19930;-86
2022/10/14 02:07:32;;;;;;;;;;;13.30;90.30;;;;;;2053272;28;20013;-86
2022/10/14 02:08:53;;;;;;;;;;;13.30;90.30;;;;;;2034899;29;19960;-84
2022/10/14 02:10:00;;;;;;;;;;;13.30;90.30;;;;;;2034564;29;19923;-85
2022/10/14 02:11:02;;;;;;;;;;;13.30;90.30;;;;;;2042067;29;19918;-86
2022/10/14 02:12:09;;;;;;;;;;;13.30;90.30;;;;;;2042434;29;20297;-87
2022/10/14 02:13:13;;;;;;;;;;;13.30;90.20;;;;;;2051368;28;19910;-85
2022/10/14 02:14:26;;;;;;;;;;;13.30;90.30;;;;;;2058616;28;20249;-85
2022/10/14 02:15:40;;;;;;;;;;;13.30;90.30;;;;;;2061999;28;20344;-87
2022/10/14 02:16:50;;;;;;;;;;;13.30;90.30;;;;;;2050684;29;19969;-86
2022/10/14 02:18:13;;;;;;;;;;;13.30;90.40;;;;;;2052706;28;20379;-84
2022/10/14 02:19:27;;;;;;;;;;;13.30;90.40;;;;;;2058287;28;19910;-85
2022/10/14 02:20:32;;;;;;;;;;;13.30;90.40;;;;;;2052369;28;19906;-85
2022/10/14 02:21:40;;;;;;;;;;;13.30;90.40;;;;;;2054779;28;20317;-87
2022/10/14 02:22:44;;;;;;;;;;;13.30;90.40;;;;;;2058563;28;19918;-85
2022/10/14 02:23:49;;;;;;;;;;;13.30;90.50;;;;;;2050268;29;19918;-88
2022/10/14 02:24:52;;;;;;;;;;;13.30;90.50;;;;;;2051252;28;19949;-86
2022/10/14 02:25:53;;;;;;;;;;;13.30;90.40;;;;;;2054756;28;20379;-89
2022/10/14 02:26:55;;;;;;;;;;;13.30;90.40;;;;;;2046332;29;19914;-84
2022/10/14 02:27:56;;;;;;;;;;;13.30;90.50;;;;;;2042656;29;19950;-87
2022/10/14 02:28:58;;;;;;;;;;;13.30;90.50;;;;;;2050524;28;19911;-86
2022/10/14 02:30:00;;;;;;;;;;;13.30;90.50;;;;;;2058782;28;20001;-85
2022/10/14 02:31:05;;;;;;;;;;;13.30;90.50;;;;;;2058539;28;19942;-87
2022/10/14 02:32:07;;;;;;;;;;;13.30;90.60;;;;;;2042625;29;19974;-88
2022/10/14 02:33:08;;;;;;;;;;;13.30;90.50;;;;;;2050451;28;20370;-87
2022/10/14 02:34:10;;;;;;;;;;;13.30;90.50;;;;;;2050029;28;19914;-85
2022/10/14 02:35:11;;;;;;;;;;;13.30;90.40;;;;;;2050622;28;19914;-85
2022/10/14 02:36:14;;;;;;;;;;;13.30;90.50;;;;;;2042386;29;19910;-89
2022/10/14 02:37:15;;;;;;;;;;;13.30;90.40;;;;;;2044558;28;19910;-86
2022/10/14 02:38:17;;;;;;;;;;;13.30;90.40;;;;;;2052119;28;19914;-85
2022/10/14 02:39:21;;;;;;;;;;;13.30;90.40;;;;;;2050392;28;19906;-85
2022/10/14 02:40:31;;;;;;;;;;;13.30;90.50;;;;;;2050760;28;20387;-85
2022/10/14 02:41:34;;;;;;;;;;;13.30;90.50;;;;;;2062414;28;19910;-88
2022/10/14 02:42:35;;;;;;;;;;;13.30;90.40;;;;;;2042673;29;19994;-84
2022/10/14 02:43:38;;;;;;;;;;;13.30;90.40;;;;;;2052608;28;19910;-87
2022/10/14 02:44:58;;;;;;;;;;;13.30;90.50;;;;;;2066272;28;19961;-88
2022/10/14 02:46:01;;;;;;;;;;;13.30;90.40;;;;;;2045072;29;19915;-84
2022/10/14 02:47:02;;;;;;;;;;;13.30;90.50;;;;;;2059378;28;19957;-88
2022/10/14 02:48:04;;;;;;;;;;;13.30;90.50;;;;;;2066248;28;20302;-87
2022/10/14 02:49:05;;;;;;;;;;;13.30;90.60;;;;;;2058914;28;20408;-85
2022/10/14 02:50:06;;;;;;;;;;;13.30;90.50;;;;;;2045883;29;19997;-86
2022/10/14 02:51:06;;;;;;;;;;;13.30;90.50;;;;;;2050082;28;19925;-86
2022/10/14 02:52:07;;;;;;;;;;;13.30;90.50;;;;;;2047558;29;19918;-88
2022/10/14 02:53:11;;;;;;;;;;;13.30;90.50;;;;;;2051641;29;19906;-87
2022/10/14 02:54:12;;;;;;;;;;;13.30;90.50;;;;;;2051240;29;19998;-85
2022/10/14 02:55:13;;;;;;;;;;;13.30;90.50;;;;;;2060142;28;19921;-84
2022/10/14 02:56:15;;;;;;;;;;;13.30;90.50;;;;;;2052200;29;19907;-83
2022/10/14 02:57:15;;;;;;;;;;;13.30;90.50;;;;;;2049043;28;19921;-87
2022/10/14 02:58:16;;;;;;;;;;;13.30;90.50;;;;;;2051158;29;20340;-86
2022/10/14 02:59:16;;;;;;;;;;;13.30;90.50;;;;;;2052062;29;19911;-84
2022/10/14 03:00:17;;;;;;;;;;;13.30;90.50;;;;;;2051682;29;19941;-87
2022/10/14 03:01:18;;;;;;;;;;;13.30;90.50;;;;;;2036356;29;19907;-84
2022/10/14 03:02:19;;;;;;;;;;;13.30;90.50;;;;;;2036775;29;19981;-84
2022/10/14 03:03:21;;;;;;;;;;;13.30;90.50;;;;;;2044511;28;20380;-85
2022/10/14 03:04:22;;;;;;;;;;;13.30;90.50;;;;;;2037120;29;19937;-86
2022/10/14 03:05:25;;;;;;;;;;;13.30;90.50;;;;;;2044110;28;19995;-83
2022/10/14 03:06:27;;;;;;;;;;;13.30;90.50;;;;;;2044258;29;19911;-89
2022/10/14 03:07:31;;;;;;;;;;;13.30;90.50;;;;;;2052969;28;20005;-88
2022/10/14 03:08:36;;;;;;;;;;;13.30;90.50;;;;;;2059471;28;19917;-87
2022/10/14 03:09:39;;;;;;;;;;;13.30;90.50;;;;;;2046289;28;19962;-86
2022/10/14 03:10:40;;;;;;;;;;;13.30;90.60;;;;;;2056784;28;19906;-87
2022/10/14 03:11:44;;;;;;;;;;;13.30;90.60;;;;;;2053494;28;20444;-85
2022/10/14 03:12:49;;;;;;;;;;;13.30;90.50;;;;;;2051937;28;19911;-87
2022/10/14 03:13:59;;;;;;;;;;;13.30;90.60;;;;;;2054814;28;20001;-83
2022/10/14 03:15:00;;;;;;;;;;;13.20;90.60;;;;;;2059863;28;20277;-88
2022/10/14 03:16:01;;;;;;;;;;;13.20;90.60;;;;;;2056597;28;19941;-87
2022/10/14 03:17:02;;;;;;;;;;;13.30;90.60;;;;;;2043859;29;19906;-89
2022/10/14 03:18:06;;;;;;;;;;;13.30;90.60;;;;;;2044450;29;19929;-82
2022/10/14 03:19:14;;;;;;;;;;;13.20;90.60;;;;;;2046582;28;19973;-87
2022/10/14 03:20:20;;;;;;;;;;;13.20;90.60;;;;;;2054244;28;20353;-87
2022/10/14 03:21:25;;;;;;;;;;;13.20;90.60;;;;;;2044792;29;19958;-86
2022/10/14 03:22:27;;;;;;;;;;;13.20;90.70;;;;;;2052329;28;19916;-84
2022/10/14 03:23:29;;;;;;;;;;;13.20;90.70;;;;;;2059652;28;19906;-85
2022/10/14 03:24:29;;;;;;;;;;;13.20;90.60;;;;;;2059742;28;19953;-86
2022/10/14 03:25:51;;;;;;;;;;;13.20;90.60;;;;;;2056107;28;19985;-85
2022/10/14 03:27:14;;;;;;;;;;;13.20;90.60;;;;;;2044032;29;19910;-85
2022/10/14 03:28:15;;;;;;;;;;;13.20;90.60;;;;;;2051856;28;19917;-86
2022/10/14 03:31:27;;;;;;;;;;;13.30;90.60;;;;;;2059787;28;20272;-88
2022/10/14 03:32:46;;;;;;;;;;;13.20;90.70;;;;;;2054667;28;19910;-86
2022/10/14 03:34:10;;;;;;;;;;;13.30;90.70;;;;;;2064051;28;19924;-87
2022/10/14 03:35:12;;;;;;;;;;;13.20;90.60;;;;;;2056116;28;19930;-86
2022/10/14 03:36:16;;;;;;;;;;;13.20;90.70;;;;;;2036917;29;19999;-86
2022/10/14 03:37:24;;;;;;;;;;;13.20;90.70;;;;;;2036876;29;19911;-85
2022/10/14 03:38:28;;;;;;;;;;;13.30;90.70;;;;;;2047897;28;19997;-85
2022/10/14 03:39:31;;;;;;;;;;;13.20;90.60;;;;;;2051225;29;19929;-88
2022/10/14 03:40:37;;;;;;;;;;;13.20;90.70;;;;;;2046100;28;19915;-86
2022/10/14 03:41:42;;;;;;;;;;;13.20;90.80;;;;;;2052406;28;19966;-87
2022/10/14 03:42:44;;;;;;;;;;;13.20;90.70;;;;;;2056493;28;19917;-87
2022/10/14 03:43:45;;;;;;;;;;;13.30;90.80;;;;;;2051889;29;19911;-88
2022/10/14 03:44:46;;;;;;;;;;;13.20;90.80;;;;;;2059794;28;19906;-85
2022/10/14 03:45:55;;;;;;;;;;;13.30;91.00;;;;;;2046341;29;19906;-86
2022/10/14 03:46:58;;;;;;;;;;;13.20;90.90;;;;;;2039382;29;20318;-87
2022/10/14 03:48:03;;;;;;;;;;;13.20;90.90;;;;;;2043998;29;19948;-88
2022/10/14 03:49:04;;;;;;;;;;;13.30;90.90;;;;;;2044437;28;19917;-86
2022/10/14 03:50:06;;;;;;;;;;;13.20;90.90;;;;;;2064637;28;19913;-83
2022/10/14 03:51:15;;;;;;;;;;;13.30;90.90;;;;;;2051762;28;19914;-89
2022/10/14 03:52:17;;;;;;;;;;;13.30;91.00;;;;;;2036127;29;19949;-88
2022/10/14 03:53:18;;;;;;;;;;;13.30;91.00;;;;;;2039004;29;20353;-85
2022/10/14 03:54:19;;;;;;;;;;;13.20;90.90;;;;;;2035998;29;20013;-84
2022/10/14 03:55:20;;;;;;;;;;;13.30;90.80;;;;;;2043702;29;19907;-85
2022/10/14 03:56:23;;;;;;;;;;;13.30;90.80;;;;;;2052239;28;20348;-87
2022/10/14 03:57:25;;;;;;;;;;;13.30;90.80;;;;;;2067542;28;19982;-86
2022/10/14 03:58:29;;;;;;;;;;;13.30;90.80;;;;;;2056101;28;19906;-85
2022/10/14 03:59:35;;;;;;;;;;;13.30;90.80;;;;;;2045107;28;20001;-85
2022/10/14 04:00:36;;;;;;;;;;;13.30;90.90;;;;;;2051358;28;19974;-87
2022/10/14 04:01:51;;;;;;;;;;;13.30;90.90;;;;;;2041157;29;19915;-86
2022/10/14 04:02:56;;;;;;;;;;;13.30;90.80;;;;;;2036576;29;19915;-84
2022/10/14 04:04:05;;;;;;;;;;;13.30;90.90;;;;;;2053565;28;19917;-84
2022/10/14 04:05:07;;;;;;;;;;;13.30;91.00;;;;;;2058635;28;20342;-87
2022/10/14 04:06:08;;;;;;;;;;;13.30;90.90;;;;;;2051574;29;19914;-87
2022/10/14 04:07:11;;;;;;;;;;;13.30;90.90;;;;;;2051542;29;19916;-88
2022/10/14 04:08:12;;;;;;;;;;;13.30;90.90;;;;;;2044123;29;19949;-84
2022/10/14 04:09:16;;;;;;;;;;;13.30;90.90;;;;;;2051533;29;20385;-88
2022/10/14 04:10:17;;;;;;;;;;;13.30;91.00;;;;;;2044192;29;19918;-86
2022/10/14 04:11:24;;;;;;;;;;;13.30;91.00;;;;;;2067693;28;19917;-85
2022/10/14 04:12:27;;;;;;;;;;;13.30;90.90;;;;;;2057940;28;19910;-86
2022/10/14 04:13:35;;;;;;;;;;;13.30;90.90;;;;;;2051104;29;20016;-87
2022/10/14 04:14:36;;;;;;;;;;;13.30;90.90;;;;;;2042745;29;19926;-88
2022/10/14 04:15:37;;;;;;;;;;;13.30;90.90;;;;;;2047685;29;20029;-88
2022/10/14 04:16:46;;;;;;;;;;;13.30;90.90;;;;;;2052068;28;19950;-89
2022/10/14 04:17:46;;;;;;;;;;;13.30;90.90;;;;;;2059155;28;19917;-86
2022/10/14 04:18:48;;;;;;;;;;;13.30;90.90;;;;;;2050228;28;20049;-85
2022/10/14 04:19:54;;;;;;;;;;;13.30;90.90;;;;;;2044056;29;19926;-85
2022/10/14 04:20:58;;;;;;;;;;;13.30;90.90;;;;;;2051512;28;19918;-84
2022/10/14 04:21:59;;;;;;;;;;;13.30;90.90;;;;;;2050878;28;19972;-87
2022/10/14 04:23:01;;;;;;;;;;;13.30;90.90;;;;;;2049483;28;19910;-84
2022/10/14 04:24:02;;;;;;;;;;;13.30;90.90;;;;;;2051442;28;19913;-86
2022/10/14 04:25:29;;;;;;;;;;;13.30;91.00;;;;;;2059112;28;19963;-86
2022/10/14 04:26:36;;;;;;;;;;;13.30;90.90;;;;;;2059533;28;19910;-88
2022/10/14 04:27:39;;;;;;;;;;;13.30;90.90;;;;;;2049149;28;19949;-87
2022/10/14 04:28:42;;;;;;;;;;;13.30;90.90;;;;;;2051399;29;19906;-85
2022/10/14 04:29:48;;;;;;;;;;;13.30;90.90;;;;;;2051698;29;20005;-85
2022/10/14 04:30:56;;;;;;;;;;;13.30;90.90;;;;;;2056349;28;19914;-87
2022/10/14 04:32:02;;;;;;;;;;;13.30;90.90;;;;;;2051624;28;19906;-88
2022/10/14 04:33:03;;;;;;;;;;;13.30;90.90;;;;;;2044375;29;19970;-86
2022/10/14 04:34:04;;;;;;;;;;;13.30;90.80;;;;;;2056292;28;19984;-86
2022/10/14 04:35:09;;;;;;;;;;;13.30;90.90;;;;;;2044828;28;19906;-87
2022/10/14 04:36:14;;;;;;;;;;;13.30;90.90;;;;;;2058041;28;19990;-89
2022/10/14 04:37:16;;;;;;;;;;;13.30;90.90;;;;;;2044055;28;20365;-83
2022/10/14 04:38:33;;;;;;;;;;;13.30;90.90;;;;;;2048826;28;19920;-84
2022/10/14 04:41:04;;;;;;;;;;;13.30;90.90;;;;;;2058588;28;19909;-85
2022/10/14 04:42:05;;;;;;;;;;;13.30;90.90;;;;;;2051319;29;20321;-85
2022/10/14 04:43:05;;;;;;;;;;;13.30;90.90;;;;;;2050921;28;19953;-87
2022/10/14 04:44:14;;;;;;;;;;;13.30;90.90;;;;;;2052771;28;19914;-86
2022/10/14 04:45:21;;;;;;;;;;;13.30;90.90;;;;;;2043537;29;19997;-88
2022/10/14 04:46:30;;;;;;;;;;;13.30;90.90;;;;;;2040736;29;19950;-84
2022/10/14 04:47:30;;;;;;;;;;;13.30;90.90;;;;;;2045120;28;20005;-84
2022/10/14 04:48:35;;;;;;;;;;;13.30;90.90;;;;;;2056734;28;19909;-88
2022/10/14 04:49:36;;;;;;;;;;;13.30;90.90;;;;;;2043914;28;20031;-87
2022/10/14 04:50:48;;;;;;;;;;;13.30;90.80;;;;;;2059104;28;19910;-84
2022/10/14 04:52:24;;;;;;;;;;;13.30;90.90;;;;;;2048666;28;19929;-88
2022/10/14 04:53:30;;;;;;;;;;;13.30;90.80;;;;;;2055972;28;19910;-86
2022/10/14 04:54:49;;;;;;;;;;;13.30;90.90;;;;;;2054872;28;19914;-87
2022/10/14 04:55:57;;;;;;;;;;;13.30;90.90;;;;;;2044298;29;20001;-88
2022/10/14 04:57:00;;;;;;;;;;;13.30;90.90;;;;;;2044570;29;19909;-83
2022/10/14 04:58:03;;;;;;;;;;;13.30;90.90;;;;;;2054394;28;20237;-83
2022/10/14 04:59:10;;;;;;;;;;;13.30;90.90;;;;;;2057710;28;19910;-85
2022/10/14 05:00:25;;;;;;;;;;;13.30;90.90;;;;;;2051493;29;19907;-85
2022/10/14 05:01:28;;;;;;;;;;;13.30;91.00;;;;;;2048724;28;19957;-85
2022/10/14 05:02:29;;;;;;;;;;;13.30;90.90;;;;;;2051033;28;19926;-83
2022/10/14 05:03:33;;;;;;;;;;;13.30;90.90;;;;;;2051510;28;19910;-87
2022/10/14 05:04:34;;;;;;;;;;;13.30;91.00;;;;;;2059208;28;20001;-84
2022/10/14 05:05:35;;;;;;;;;;;13.30;90.90;;;;;;2050700;28;19906;-86
2022/10/14 05:06:38;;;;;;;;;;;13.30;90.90;;;;;;2052672;28;19921;-87
2022/10/14 05:07:41;;;;;;;;;;;13.30;90.90;;;;;;2051790;28;20380;-85
2022/10/14 05:09:15;;;;;;;;;;;13.30;90.90;;;;;;2045255;29;20412;-85
2022/10/14 05:10:17;;;;;;;;;;;13.30;90.90;;;;;;2052740;28;19910;-86
2022/10/14 05:11:18;;;;;;;;;;;13.30;90.90;;;;;;2051034;28;19914;-84
2022/10/14 05:12:25;;;;;;;;;;;13.30;90.90;;;;;;2050559;28;19950;-82
2022/10/14 05:13:31;;;;;;;;;;;13.30;91.00;;;;;;2059759;28;19910;-86
2022/10/14 05:14:36;;;;;;;;;;;13.30;91.00;;;;;;2067071;28;20267;-86
2022/10/14 05:15:59;;;;;;;;;;;13.30;90.90;;;;;;2058700;28;20387;-86
2022/10/14 05:17:01;;;;;;;;;;;13.30;90.90;;;;;;2053846;28;19909;-84
2022/10/14 05:18:04;;;;;;;;;;;13.30;90.90;;;;;;2043393;29;20352;-87
2022/10/14 05:21:09;;;;;;;;;;;13.40;91.00;;;;;;2056896;28;20044;-85
2022/10/14 05:22:26;;;;;;;;;;;13.40;90.90;;;;;;2053466;28;20447;-85
2022/10/14 05:23:26;;;;;;;;;;;13.30;90.90;;;;;;2045141;28;19911;-86
2022/10/14 05:24:28;;;;;;;;;;;13.30;90.90;;;;;;2043050;29;20369;-83
2022/10/14 05:25:29;;;;;;;;;;;13.30;90.90;;;;;;2047136;29;19907;-83
2022/10/14 05:26:30;;;;;;;;;;;13.30;90.90;;;;;;2051071;28;19917;-86
2022/10/14 05:27:33;;;;;;;;;;;13.30;90.90;;;;;;2051279;28;20293;-86
2022/10/14 05:28:39;;;;;;;;;;;13.30;90.90;;;;;;2058755;28;19909;-83
2022/10/14 05:29:40;;;;;;;;;;;13.40;90.90;;;;;;2040567;29;19911;-85
2022/10/14 05:30:41;;;;;;;;;;;13.30;90.90;;;;;;2049373;28;19910;-84
2022/10/14 05:31:44;;;;;;;;;;;13.30;90.90;;;;;;2051039;28;19961;-86
2022/10/14 05:33:14;;;;;;;;;;;13.40;91.00;;;;;;2049512;28;19917;-83
2022/10/14 05:34:15;;;;;;;;;;;13.40;90.90;;;;;;2050725;29;19925;-86
2022/10/14 05:35:16;;;;;;;;;;;13.40;91.00;;;;;;2034690;29;19966;-83
2022/10/14 05:36:18;;;;;;;;;;;13.40;90.90;;;;;;2051117;28;20001;-87
2022/10/14 05:37:19;;;;;;;;;;;13.40;91.00;;;;;;2050880;29;20376;-86
2022/10/14 05:38:24;;;;;;;;;;;13.40;90.90;;;;;;2043289;28;20001;-83
2022/10/14 05:39:25;;;;;;;;;;;13.40;91.00;;;;;;2040007;28;20277;-84
2022/10/14 05:40:28;;;;;;;;;;;13.40;91.00;;;;;;2035852;29;19922;-84
2022/10/14 05:41:29;;;;;;;;;;;13.40;91.00;;;;;;2042873;29;19907;-87
2022/10/14 05:42:30;;;;;;;;;;;13.30;90.90;;;;;;2042848;29;19946;-87
2022/10/14 05:43:32;;;;;;;;;;;13.40;91.00;;;;;;2043328;28;20061;-86
2022/10/14 05:44:34;;;;;;;;;;;13.40;91.00;;;;;;2047107;28;19906;-84
2022/10/14 05:45:35;;;;;;;;;;;13.40;91.00;;;;;;2044130;29;19962;-85
2022/10/14 05:46:36;;;;;;;;;;;13.40;91.00;;;;;;2050690;29;19926;-84
2022/10/14 05:47:38;;;;;;;;;;;13.40;91.00;;;;;;2028785;29;19907;-85
2022/10/14 05:48:47;;;;;;;;;;;13.40;91.30;;;;;;2045652;28;19907;-87
2022/10/14 05:49:49;;;;;;;;;;;13.40;91.00;;;;;;2050793;29;20308;-87
2022/10/14 05:50:51;;;;;;;;;;;13.40;91.00;;;;;;2043382;28;19949;-84
2022/10/14 05:51:54;;;;;;;;;;;13.40;91.00;;;;;;2058141;28;19910;-87
2022/10/14 05:52:57;;;;;;;;;;;13.40;91.00;;;;;;2050974;28;19921;-86
2022/10/14 05:54:03;;;;;;;;;;;13.40;91.00;;;;;;2050851;28;19958;-85
2022/10/14 05:55:04;;;;;;;;;;;13.40;91.00;;;;;;2048458;29;19914;-84
2022/10/14 05:56:07;;;;;;;;;;;13.40;90.90;;;;;;2042944;29;19925;-87
2022/10/14 05:57:10;;;;;;;;;;;13.40;91.00;;;;;;2043841;28;20338;-86
2022/10/14 05:58:11;;;;;;;;;;;13.40;91.00;;;;;;2050768;29;19906;-84
2022/10/14 05:59:14;;;;;;;;;;;13.40;91.00;;;;;;2050780;29;20272;-85
2022/10/14 06:00:18;;;;;;;;;;;13.40;91.00;;;;;;2050867;28;19911;-84
2022/10/14 06:01:20;;;;;;;;;;;13.40;91.00;;;;;;2059034;28;19905;-87
2022/10/14 06:02:21;;;;;;;;;;;13.40;90.90;;;;;;2042679;29;19919;-87
2022/10/14 06:03:21;;;;;;;;;;;13.40;91.00;;;;;;2047660;29;19910;-83
2022/10/14 06:04:23;;;;;;;;;;;13.40;91.00;;;;;;2043479;28;19976;-85
2022/10/14 06:05:24;;;;;;;;;;;13.40;91.00;;;;;;2049367;29;20425;-82
2022/10/14 06:06:25;;;;;;;;;;;13.40;91.00;;;;;;2042159;29;20022;-86
2022/10/14 06:07:26;;;;;;;;;;;13.40;91.00;;;;;;2042894;29;20387;-85
2022/10/14 06:08:27;;;;;;;;;;;13.40;91.00;;;;;;2034820;29;20322;-83
2022/10/14 06:09:29;;;;;;;;;;;13.40;91.00;;;;;;2034978;29;20009;-85
2022/10/14 06:10:29;;;;;;;;;;;13.40;91.00;;;;;;2043050;29;19906;-83
2022/10/14 06:11:30;;;;;;;;;;;13.40;91.00;;;;;;2050829;29;19907;-85
2022/10/14 06:12:31;;;;;;;;;;;13.40;91.00;;;;;;2049784;29;19945;-85
2022/10/14 06:13:32;;;;;;;;;;;13.40;91.00;;;;;;2042730;29;19917;-86
2022/10/14 06:14:33;;;;;;;;;;;13.40;91.00;;;;;;2035180;29;20404;-84
2022/10/14 06:15:35;;;;;;;;;;;13.40;91.00;;;;;;2050793;28;19938;-85
2022/10/14 06:16:35;;;;;;;;;;;13.40;91.00;;;;;;2052136;28;19953;-86
2022/10/14 06:17:39;;;;;;;;;;;13.40;91.00;;;;;;2058726;28;19906;-83
2022/10/14 06:18:39;;;;;;;;;;;13.40;91.00;;;;;;2057843;28;19906;-85
2022/10/14 06:19:40;;;;;;;;;;;13.40;91.10;;;;;;2042750;28;19910;-85